createdAt,value
2024-01-30T00:01:44.135Z,9.82
2024-01-30T00:04:46.461Z,10.03
2024-01-30T00:07:51.331Z,12.45
2024-01-30T00:10:53.627Z,9.60
2024-01-30T00:13:57.501Z,8.18
2024-01-30T00:16:59.894Z,9.60
2024-01-30T00:20:02.244Z,13.63
2024-01-30T00:23:04.606Z,6.95
2024-01-30T00:26:07.362Z,8.40
2024-01-30T00:29:09.735Z,7.70
2024-01-30T00:32:13.826Z,8.88
2024-01-30T00:35:16.183Z,9.70
2024-01-30T00:38:18.715Z,9.30
2024-01-30T00:41:21.138Z,9.87
2024-01-30T00:44:24.553Z,10.32
2024-01-30T00:50:29.200Z,8.57
2024-01-30T00:53:31.593Z,11.80
2024-01-30T00:56:34.423Z,8.40
2024-01-30T00:59:37.157Z,9.82
2024-01-30T01:02:40.444Z,8.00
2024-01-30T01:05:42.761Z,10.90
2024-01-30T01:08:44.993Z,9.68
2024-01-30T01:11:47.368Z,9.98
2024-01-30T01:14:49.679Z,8.52
2024-01-30T01:17:52.063Z,9.02
2024-01-30T01:20:54.449Z,8.10
2024-01-30T01:23:56.885Z,8.32
2024-01-30T01:27:00.534Z,8.30
2024-01-30T01:30:07.121Z,8.00
2024-01-30T01:33:10.537Z,7.97
2024-01-30T01:36:13.226Z,8.60
2024-01-30T01:39:15.989Z,8.40
2024-01-30T01:42:18.351Z,9.30
2024-01-30T01:45:22.369Z,7.97
2024-01-30T01:48:24.767Z,8.27
2024-01-30T01:51:29.073Z,8.17
2024-01-30T01:54:31.701Z,10.27
2024-01-30T01:57:34.136Z,7.67
2024-01-30T02:00:40.990Z,6.72
2024-01-30T02:03:43.750Z,8.32
2024-01-30T02:06:46.127Z,6.63
2024-01-30T02:09:48.520Z,7.95
2024-01-30T02:12:51.261Z,7.57
2024-01-30T02:15:53.638Z,9.52
2024-01-30T02:18:56.155Z,9.38
2024-01-30T02:21:58.441Z,6.47
2024-01-30T02:25:00.856Z,7.03
2024-01-30T02:28:03.145Z,7.23
2024-01-30T02:31:05.672Z,7.53
2024-01-30T02:34:08.139Z,6.28
2024-01-30T02:37:10.471Z,10.43
2024-01-30T02:40:12.728Z,5.93
2024-01-30T02:43:15.194Z,7.65
2024-01-30T02:46:17.413Z,6.50
2024-01-30T02:49:19.826Z,6.43
2024-01-30T02:52:22.077Z,7.20
2024-01-30T02:55:24.586Z,6.28
2024-01-30T02:58:27.050Z,6.23
2024-01-30T03:01:29.376Z,7.57
2024-01-30T03:04:32.088Z,6.78
2024-01-30T03:07:35.102Z,6.30
2024-01-30T03:10:39.697Z,6.78
2024-01-30T03:13:42.017Z,6.30
2024-01-30T03:16:44.299Z,9.40
2024-01-30T03:19:46.535Z,6.07
2024-01-30T03:22:48.934Z,6.78
2024-01-30T03:25:51.087Z,6.70
2024-01-30T03:28:53.291Z,7.55
2024-01-30T03:31:55.499Z,9.02
2024-01-30T03:34:59.311Z,6.47
2024-01-30T03:38:01.612Z,6.90
2024-01-30T03:41:04.231Z,10.18
2024-01-30T03:44:07.910Z,6.97
2024-01-30T03:47:10.630Z,7.13
2024-01-30T03:50:12.984Z,8.48
2024-01-30T03:53:15.269Z,7.25
2024-01-30T03:56:17.561Z,7.68
2024-01-30T03:59:25.103Z,8.88
2024-01-30T04:02:27.719Z,5.93
2024-01-30T04:05:30.103Z,5.88
2024-01-30T04:08:33.333Z,6.97
2024-01-30T04:11:35.698Z,7.00
2024-01-30T04:14:39.728Z,7.38
2024-01-30T04:17:41.971Z,7.18
2024-01-30T04:20:44.337Z,6.85
2024-01-30T04:23:46.801Z,6.07
2024-01-30T04:26:48.976Z,6.40
2024-01-30T04:29:51.244Z,7.63
2024-01-30T04:32:53.514Z,6.18
2024-01-30T04:35:55.714Z,7.70
2024-01-30T04:38:57.985Z,8.40
2024-01-30T04:42:00.562Z,8.18
2024-01-30T04:45:03.526Z,6.68
2024-01-30T04:48:06.016Z,19.02
2024-01-30T04:51:08.190Z,9.10
2024-01-30T04:54:10.542Z,9.48
2024-01-30T04:57:13.595Z,7.95
2024-01-30T05:00:16.256Z,9.68
2024-01-30T05:03:18.703Z,7.28
2024-01-30T05:06:29.857Z,9.18
2024-01-30T05:09:32.128Z,6.57
2024-01-30T05:12:34.337Z,6.35
2024-01-30T05:15:36.720Z,5.93
2024-01-30T05:18:39.140Z,8.30
2024-01-30T05:21:41.577Z,5.65
2024-01-30T05:24:44.102Z,7.43
2024-01-30T05:27:46.691Z,6.90
2024-01-30T05:30:48.957Z,7.43
2024-01-30T05:33:51.799Z,7.32
2024-01-30T05:36:54.185Z,8.13
2024-01-30T05:39:56.779Z,8.45
2024-01-30T05:43:03.735Z,6.65
2024-01-30T05:46:07.279Z,9.70
2024-01-30T05:49:09.891Z,8.13
2024-01-30T05:52:12.425Z,7.45
2024-01-30T05:55:14.662Z,8.33
2024-01-30T05:58:16.999Z,7.07
2024-01-30T06:01:19.467Z,8.15
2024-01-30T06:04:21.877Z,6.87
2024-01-30T06:07:24.381Z,14.73
2024-01-30T06:10:26.921Z,7.87
2024-01-30T06:13:31.775Z,8.73
2024-01-30T06:16:34.092Z,6.20
2024-01-30T06:19:36.386Z,7.82
2024-01-30T06:22:38.738Z,6.32
2024-01-30T06:25:40.883Z,6.70
2024-01-30T06:28:43.181Z,8.10
2024-01-30T06:31:45.755Z,7.50
2024-01-30T06:34:48.166Z,7.50
2024-01-30T06:37:50.497Z,5.65
2024-01-30T06:40:52.705Z,6.40
2024-01-30T06:43:54.922Z,7.63
2024-01-30T06:46:58.440Z,8.75
2024-01-30T06:50:01.018Z,7.00
2024-01-30T06:53:03.409Z,10.10
2024-01-30T06:56:05.813Z,7.03
2024-01-30T06:59:08.129Z,7.35
2024-01-30T07:02:11.700Z,7.00
2024-01-30T07:05:14.573Z,9.25
2024-01-30T07:08:20.652Z,17.50
2024-01-30T07:11:24.886Z,11.00
2024-01-30T07:14:27.195Z,9.25
2024-01-30T07:17:29.578Z,10.13
2024-01-30T07:20:33.386Z,8.15
2024-01-30T07:23:35.902Z,9.57
2024-01-30T07:26:38.113Z,7.97
2024-01-30T07:29:40.379Z,7.13
2024-01-30T07:32:42.653Z,11.35
2024-01-30T07:35:45.208Z,8.98
2024-01-30T07:38:47.591Z,9.97
2024-01-30T07:41:49.816Z,10.98
2024-01-30T07:44:52.523Z,9.35
2024-01-30T07:47:54.790Z,8.63
2024-01-30T07:50:57.005Z,11.38
2024-01-30T07:53:59.248Z,11.00
2024-01-30T07:57:02.393Z,10.10
2024-01-30T08:00:04.904Z,8.05
2024-01-30T08:03:07.075Z,9.43
2024-01-30T08:06:09.699Z,9.95
2024-01-30T08:09:11.945Z,13.98
2024-01-30T08:12:14.839Z,8.98
2024-01-30T08:15:17.224Z,8.85
2024-01-30T08:18:19.545Z,8.90
2024-01-30T08:21:21.809Z,6.28
2024-01-30T08:24:24.086Z,8.63
2024-01-30T08:27:26.426Z,10.35
2024-01-30T08:30:28.625Z,16.30
2024-01-30T08:33:30.999Z,28.92
2024-01-30T08:36:33.432Z,41.40
2024-01-30T08:39:35.665Z,43.33
2024-01-30T08:42:38.080Z,25.95
2024-01-30T08:45:43.934Z,18.40
2024-01-30T08:48:46.311Z,34.08
2024-01-30T08:51:48.690Z,27.65
2024-01-30T08:54:50.940Z,24.92
2024-01-30T08:57:54.386Z,15.05
2024-01-30T09:00:56.673Z,15.15
2024-01-30T09:03:59.099Z,13.35
2024-01-30T09:07:01.614Z,18.43
2024-01-30T09:10:03.978Z,20.03
2024-01-30T09:13:06.364Z,10.38
2024-01-30T09:16:09.006Z,12.10
2024-01-30T09:19:11.296Z,10.68
2024-01-30T09:22:13.699Z,9.95
2024-01-30T09:25:15.989Z,10.75
2024-01-30T09:28:22.118Z,9.60
2024-01-30T09:31:25.501Z,13.18
2024-01-30T09:34:27.723Z,18.42
2024-01-30T09:37:30.100Z,38.55
2024-01-30T09:40:32.415Z,40.22
2024-01-30T09:43:36.010Z,39.65
2024-01-30T09:46:38.732Z,37.47
2024-01-30T09:49:41.088Z,32.50
2024-01-30T09:52:44.141Z,48.50
2024-01-30T09:55:47.124Z,44.45
2024-01-30T09:58:49.943Z,36.90
2024-01-30T10:01:53.110Z,23.77
2024-01-30T10:04:55.457Z,18.30
2024-01-30T10:08:00.226Z,21.63
2024-01-30T10:11:03.044Z,22.17
2024-01-30T10:14:05.325Z,12.15
2024-01-30T10:17:14.822Z,14.15
2024-01-30T10:20:24.175Z,20.92
2024-01-30T10:23:27.213Z,43.67
2024-01-30T10:26:35.393Z,21.83
2024-01-30T10:29:38.879Z,16.90
2024-01-30T10:35:43.339Z,11.13
2024-01-30T10:38:47.557Z,46.78
2024-01-30T10:41:50.089Z,49.72
2024-01-30T10:44:55.147Z,65.57
2024-01-30T10:48:00.478Z,51.20
2024-01-30T10:51:04.508Z,15.32
2024-01-30T10:54:07.137Z,17.25
2024-01-30T10:57:09.908Z,16.05
2024-01-30T11:00:13.943Z,12.07
2024-01-30T11:03:16.514Z,15.88
2024-01-30T11:06:21.639Z,14.60
2024-01-30T11:09:23.865Z,15.95
2024-01-30T11:12:26.761Z,14.45
2024-01-30T11:15:32.581Z,10.90
2024-01-30T11:18:35.188Z,13.23
2024-01-30T11:21:42.077Z,15.10
2024-01-30T11:24:44.264Z,14.18
2024-01-30T11:27:47.735Z,12.73
2024-01-30T11:30:51.878Z,14.30
2024-01-30T11:33:55.516Z,19.30
2024-01-30T11:37:01.534Z,14.13
2024-01-30T11:40:05.254Z,16.08
2024-01-30T11:43:08.539Z,20.48
2024-01-30T11:46:11.521Z,29.38
2024-01-30T11:49:14.036Z,18.67
2024-01-30T11:52:16.481Z,15.43
2024-01-30T11:55:19.022Z,15.52
2024-01-30T11:58:21.475Z,16.23
2024-01-30T12:01:23.832Z,25.48
2024-01-30T12:04:29.688Z,15.02
2024-01-30T12:07:33.091Z,14.80
2024-01-30T12:10:35.787Z,20.30
2024-01-30T12:13:38.240Z,20.00
2024-01-30T12:16:40.568Z,13.98
2024-01-30T12:19:43.053Z,20.08
2024-01-30T12:22:46.482Z,19.90
2024-01-30T12:28:51.294Z,22.23
2024-01-30T12:31:56.598Z,15.25
2024-01-30T12:35:01.738Z,14.77
2024-01-30T12:38:05.006Z,15.65
2024-01-30T12:41:09.526Z,14.85
2024-01-30T12:44:12.837Z,15.13
2024-01-30T12:50:20.293Z,17.70
2024-01-30T12:53:22.479Z,14.18
2024-01-30T12:56:24.837Z,13.63
2024-01-30T12:59:27.221Z,13.52
2024-01-30T13:02:36.063Z,8.93
2024-01-30T13:05:38.870Z,11.98
2024-01-30T13:08:41.079Z,18.73
2024-01-30T13:11:43.229Z,16.38
2024-01-30T13:14:45.661Z,11.93
2024-01-30T13:17:49.607Z,14.43
2024-01-30T13:20:51.883Z,17.10
2024-01-30T13:23:55.545Z,14.30
2024-01-30T13:26:57.836Z,10.70
2024-01-30T13:30:01.532Z,14.93
2024-01-30T13:33:04.473Z,11.43
2024-01-30T13:36:07.383Z,10.43
2024-01-30T13:39:12.972Z,12.13
2024-01-30T13:42:15.242Z,14.82
2024-01-30T13:45:19.392Z,10.57
2024-01-30T13:48:22.758Z,11.77
2024-01-30T13:51:25.064Z,9.57
2024-01-30T13:54:27.294Z,10.98
2024-01-30T13:57:29.542Z,15.32
2024-01-30T14:00:31.941Z,10.30
2024-01-30T14:03:34.171Z,10.25
2024-01-30T14:06:37.586Z,7.38
2024-01-30T14:09:40.960Z,8.07
2024-01-30T14:12:46.213Z,10.02
2024-01-30T14:15:48.458Z,5.03
2024-01-30T14:18:50.658Z,5.15
2024-01-30T14:21:52.799Z,5.43
2024-01-30T14:24:55.233Z,5.57
2024-01-30T14:27:57.516Z,5.38
2024-01-30T14:30:59.845Z,17.33
2024-01-30T14:34:02.287Z,5.88
2024-01-30T14:37:04.837Z,3.67
2024-01-30T14:40:10.663Z,6.33
2024-01-30T14:43:12.901Z,4.20
2024-01-30T14:46:15.269Z,3.90
2024-01-30T14:49:17.744Z,2.47
2024-01-30T14:52:20.152Z,3.70
2024-01-30T14:55:22.549Z,2.50
2024-01-30T14:58:24.947Z,2.15
2024-01-30T15:01:27.653Z,1.20
2024-01-30T15:04:30.020Z,3.53
2024-01-30T15:07:39.208Z,3.15
2024-01-30T15:10:43.688Z,1.45
2024-01-30T15:13:46.135Z,3.33
2024-01-30T15:16:48.598Z,3.83
2024-01-30T15:19:52.425Z,1.53
2024-01-30T15:22:54.708Z,1.83
2024-01-30T15:25:57.099Z,1.65
2024-01-30T15:28:59.351Z,2.50
2024-01-30T15:32:01.602Z,2.03
2024-01-30T15:35:05.348Z,6.22
2024-01-30T15:38:09.970Z,3.65
2024-01-30T15:41:12.536Z,4.38
2024-01-30T15:44:15.477Z,2.13
2024-01-30T15:47:20.370Z,2.92
2024-01-30T15:50:22.776Z,2.85
2024-01-30T15:53:27.355Z,4.23
2024-01-30T15:56:29.611Z,4.05
2024-01-30T15:59:31.931Z,3.50
2024-01-30T16:02:34.238Z,2.00
2024-01-30T16:05:36.644Z,4.60
2024-01-30T16:08:38.962Z,5.03
2024-01-30T16:11:41.146Z,3.92
2024-01-30T16:14:43.711Z,5.03
2024-01-30T16:17:46.390Z,5.22
2024-01-30T16:20:48.601Z,2.00
2024-01-30T16:23:51.113Z,7.38
2024-01-30T16:26:53.395Z,3.43
2024-01-30T16:29:55.616Z,5.10
2024-01-30T16:32:57.946Z,5.03
2024-01-30T16:36:00.376Z,6.87
2024-01-30T16:39:04.485Z,4.53
2024-01-30T16:42:08.216Z,5.07
2024-01-30T16:45:11.754Z,6.93
2024-01-30T16:48:18.186Z,3.35
2024-01-30T16:51:20.703Z,7.40
2024-01-30T16:54:22.861Z,8.00
2024-01-30T16:57:25.090Z,7.78
2024-01-30T17:00:27.458Z,5.65
2024-01-30T17:03:29.877Z,9.32
2024-01-30T17:06:32.216Z,5.15
2024-01-30T17:09:34.532Z,6.00
2024-01-30T17:12:36.778Z,3.10
2024-01-30T17:15:39.011Z,5.45
2024-01-30T17:18:41.390Z,3.03
2024-01-30T17:21:43.630Z,2.67
2024-01-30T17:24:50.221Z,2.67
2024-01-30T17:27:53.809Z,4.25
2024-01-30T17:30:56.198Z,4.30
2024-01-30T17:33:58.638Z,5.57
2024-01-30T17:37:01.168Z,2.50
2024-01-30T17:40:04.843Z,4.03
2024-01-30T17:43:07.034Z,4.55
2024-01-30T17:46:10.108Z,3.47
2024-01-30T17:49:13.050Z,5.13
2024-01-30T17:52:15.479Z,4.57
2024-01-30T17:55:17.711Z,4.78
2024-01-30T17:58:19.944Z,3.63
2024-01-30T18:01:22.433Z,4.18
2024-01-30T18:04:24.709Z,7.57
2024-01-30T18:07:27.034Z,4.03
2024-01-30T18:10:29.367Z,6.15
2024-01-30T18:13:31.715Z,6.13
2024-01-30T18:16:34.056Z,2.63
2024-01-30T18:19:36.497Z,4.50
2024-01-30T18:22:43.085Z,9.67
2024-01-30T18:25:45.404Z,3.53
2024-01-30T18:28:57.427Z,2.78
2024-01-30T18:31:59.732Z,4.80
2024-01-30T18:35:02.468Z,2.78
2024-01-30T18:38:04.886Z,7.35
2024-01-30T18:41:07.259Z,8.25
2024-01-30T18:44:11.705Z,6.82
2024-01-30T18:47:19.746Z,3.80
2024-01-30T18:50:22.020Z,4.90
2024-01-30T18:53:24.462Z,3.25
2024-01-30T18:56:26.686Z,3.85
2024-01-30T18:59:32.036Z,5.40
2024-01-30T19:02:34.249Z,4.40
2024-01-30T19:05:51.497Z,4.15
2024-01-30T19:09:09.650Z,2.78
2024-01-30T19:12:11.944Z,3.13
2024-01-30T19:15:14.198Z,3.20
2024-01-30T19:18:16.440Z,5.35
2024-01-30T19:21:18.895Z,3.83
2024-01-30T19:24:21.130Z,5.93
2024-01-30T19:27:23.334Z,8.00
2024-01-30T19:30:25.698Z,8.70
2024-01-30T19:33:31.798Z,4.45
2024-01-30T19:36:34.172Z,6.05
2024-01-30T19:39:36.395Z,7.80
2024-01-30T19:42:39.250Z,13.02
2024-01-30T19:45:41.891Z,12.57
2024-01-30T19:48:44.117Z,5.77
2024-01-30T19:51:46.528Z,7.20
2024-01-30T19:54:48.790Z,7.88
2024-01-30T19:57:54.070Z,8.82
2024-01-30T20:00:56.373Z,7.85
2024-01-30T20:03:58.916Z,6.80
2024-01-30T20:07:03.960Z,7.33
2024-01-30T20:10:06.775Z,10.98
2024-01-30T20:13:15.224Z,7.65
2024-01-30T20:16:17.660Z,5.80
2024-01-30T20:19:20.072Z,6.23
2024-01-30T20:22:22.488Z,8.43
2024-01-30T20:25:24.784Z,7.30
2024-01-30T20:28:27.490Z,9.23
2024-01-30T20:31:30.118Z,11.80
2024-01-30T20:34:32.660Z,9.63
2024-01-30T20:37:38.528Z,9.83
2024-01-30T20:40:43.225Z,8.40
2024-01-30T20:43:45.755Z,9.40
2024-01-30T20:46:50.146Z,9.40
2024-01-30T20:49:52.760Z,8.75
2024-01-30T20:52:55.151Z,8.30
2024-01-30T20:55:57.405Z,10.73
2024-01-30T20:58:59.823Z,10.68
2024-01-30T21:02:02.636Z,8.03
2024-01-30T21:05:05.625Z,15.25
2024-01-30T21:08:08.230Z,8.40
2024-01-30T21:11:10.898Z,11.00
2024-01-30T21:14:14.548Z,8.88
2024-01-30T21:17:17.124Z,9.25
2024-01-30T21:20:19.763Z,10.48
2024-01-30T21:23:22.650Z,10.77
2024-01-30T21:26:24.878Z,16.63
2024-01-30T21:29:27.041Z,12.82
2024-01-30T21:32:29.371Z,9.52
2024-01-30T21:35:31.646Z,12.27
2024-01-30T21:38:33.869Z,13.15
2024-01-30T21:41:36.142Z,9.15
2024-01-30T21:44:38.382Z,7.18
2024-01-30T21:47:42.244Z,10.45
2024-01-30T21:50:44.593Z,12.02
2024-01-30T21:53:46.767Z,7.78
2024-01-30T21:56:49.115Z,10.93
2024-01-30T21:59:51.375Z,8.88
2024-01-30T22:02:53.541Z,6.93
2024-01-30T22:05:55.877Z,6.28
2024-01-30T22:08:58.365Z,10.95
2024-01-30T22:12:00.531Z,8.50
2024-01-30T22:15:04.177Z,11.15
2024-01-30T22:18:06.529Z,8.88
2024-01-30T22:21:10.266Z,6.55
2024-01-30T22:24:12.625Z,8.68
2024-01-30T22:27:14.917Z,9.63
2024-01-30T22:30:17.211Z,9.43
2024-01-30T22:33:19.505Z,9.15
2024-01-30T22:36:21.801Z,9.00
2024-01-30T22:39:24.008Z,10.20
2024-01-30T22:42:26.188Z,8.18
2024-01-30T22:45:28.879Z,10.05
2024-01-30T22:48:31.316Z,7.97
2024-01-30T22:51:33.926Z,12.00
2024-01-30T22:54:36.154Z,9.57
2024-01-30T22:57:38.755Z,10.32
2024-01-30T23:00:41.356Z,10.55
2024-01-30T23:03:43.694Z,9.20
2024-01-30T23:06:46.203Z,8.93
2024-01-30T23:09:48.389Z,13.13
2024-01-30T23:12:50.708Z,9.55
2024-01-30T23:15:53.010Z,9.02
2024-01-30T23:18:55.520Z,12.30
2024-01-30T23:21:58.086Z,8.05
2024-01-30T23:25:00.461Z,9.75
2024-01-30T23:28:03.013Z,11.63
2024-01-30T23:31:05.495Z,13.77
2024-01-30T23:34:07.813Z,10.13
2024-01-30T23:37:10.274Z,10.00
2024-01-30T23:40:16.027Z,15.35
2024-01-30T23:43:19.425Z,11.35
2024-01-30T23:49:26.875Z,9.90
2024-01-30T23:52:29.311Z,10.23
2024-01-30T23:55:31.690Z,11.10
2024-01-30T23:58:34.119Z,13.60
